Time;durP1;ratioP1;P1;durP2;ratioP2;P2;SDS_P1;SDS_P2;PMS_P1;PMS_P2;Temp;Humidity;BMP_temperature;BMP_pressure;BME280_temperature;BME280_humidity;BME280_pressure;Samples;Min_cycle;Max_cycle;Signal;HPM_P1;HPM_P2
2021/12/24 00:00:55;;;;;;;30.23;21.20;;;;;;;;;;5082225;28;20458;-84
2021/12/24 00:03:21;;;;;;;30.03;21.07;;;;;;;;;;5083560;28;20450;-84
2021/12/24 00:05:48;;;;;;;31.60;21.37;;;;;;;;;;5080969;28;20519;-84
2021/12/24 00:08:14;;;;;;;34.30;20.03;;;;;;;;;;5079119;28;20570;-85
2021/12/24 00:10:43;;;;;;;32.30;19.33;;;;;;;;;;5084437;28;20494;-84
2021/12/24 00:13:12;;;;;;;35.63;20.87;;;;;;;;;;5083807;28;20533;-85
2021/12/24 00:15:54;;;;;;;39.43;20.30;;;;;;;;;;5084452;28;20450;-84
2021/12/24 00:18:30;;;;;;;30.43;19.33;;;;;;;;;;5085349;28;20469;-84
2021/12/24 00:35:11;;;;;;;31.27;19.30;;;;;;;;;;5080889;28;20485;-84
2021/12/24 00:37:38;;;;;;;28.43;19.50;;;;;;;;;;5079535;28;20494;-84
2021/12/24 00:40:12;;;;;;;32.63;20.80;;;;;;;;;;5079614;28;20513;-84
2021/12/24 00:42:40;;;;;;;34.40;21.60;;;;;;;;;;5078327;28;20508;-84
2021/12/24 00:45:06;;;;;;;36.53;20.80;;;;;;;;;;5078325;28;20482;-83
2021/12/24 00:47:33;;;;;;;31.07;19.77;;;;;;;;;;5081627;28;20447;-84
2021/12/24 00:50:01;;;;;;;31.00;20.40;;;;;;;;;;5079438;28;20479;-82
2021/12/24 00:52:45;;;;;;;36.20;20.03;;;;;;;;;;5081882;28;20449;-83
2021/12/24 00:55:12;;;;;;;35.73;21.30;;;;;;;;;;5081261;28;20911;-83
2021/12/24 00:57:39;;;;;;;34.70;19.40;;;;;;;;;;5079813;28;20456;-83
2021/12/24 01:00:07;;;;;;;35.90;21.20;;;;;;;;;;5081465;28;20478;-83
2021/12/24 01:02:33;;;;;;;31.90;20.10;;;;;;;;;;5081251;28;20531;-83
2021/12/24 01:05:00;;;;;;;33.07;20.30;;;;;;;;;;5080268;28;20489;-82
2021/12/24 01:07:26;;;;;;;39.20;22.80;;;;;;;;;;5081010;28;20497;-82
2021/12/24 01:09:52;;;;;;;34.43;20.93;;;;;;;;;;5081293;28;20536;-83
2021/12/24 01:12:20;;;;;;;39.83;20.90;;;;;;;;;;5080202;28;20867;-85
2021/12/24 01:14:48;;;;;;;38.90;20.73;;;;;;;;;;5079107;28;20471;-82
2021/12/24 01:17:25;;;;;;;37.73;23.10;;;;;;;;;;5079068;28;20483;-82
2021/12/24 01:19:57;;;;;;;33.67;20.50;;;;;;;;;;5080757;28;20545;-82
2021/12/24 01:25:29;;;;;;;33.33;21.63;;;;;;;;;;5039309;28;20570;-82
2021/12/24 01:28:27;;;;;;;32.57;20.67;;;;;;;;;;5041108;28;20456;-86
2021/12/24 01:39:11;;;;;;;36.00;19.60;;;;;;;;;;5066519;28;21081;-83
2021/12/24 01:44:26;;;;;;;28.10;16.77;;;;;;;;;;5067608;28;20646;-82
2021/12/24 01:46:53;;;;;;;29.63;19.27;;;;;;;;;;5067573;28;20848;-82
2021/12/24 01:49:20;;;;;;;40.50;23.17;;;;;;;;;;5065834;28;20526;-83
2021/12/24 01:51:46;;;;;;;34.80;21.63;;;;;;;;;;5066680;28;20476;-83
2021/12/24 01:54:12;;;;;;;34.63;21.43;;;;;;;;;;5064458;28;20466;-82
2021/12/24 01:56:38;;;;;;;33.53;20.00;;;;;;;;;;5066267;28;20451;-82
2021/12/24 01:59:05;;;;;;;33.10;20.20;;;;;;;;;;5065321;28;20471;-83
2021/12/24 02:01:32;;;;;;;33.87;20.60;;;;;;;;;;5065161;28;20486;-83
2021/12/24 02:03:58;;;;;;;37.33;21.77;;;;;;;;;;5063895;28;20480;-82
2021/12/24 02:06:25;;;;;;;35.93;21.43;;;;;;;;;;5062690;28;20460;-82
2021/12/24 02:08:51;;;;;;;29.47;19.60;;;;;;;;;;5065171;28;20600;-82
2021/12/24 02:11:17;;;;;;;29.63;19.50;;;;;;;;;;5065300;28;20480;-83
2021/12/24 02:13:44;;;;;;;33.80;20.43;;;;;;;;;;5067158;28;21067;-82
2021/12/24 02:16:18;;;;;;;41.13;19.50;;;;;;;;;;5065307;28;20443;-82
2021/12/24 02:29:46;;;;;;;34.17;19.20;;;;;;;;;;5064224;28;20470;-82
2021/12/24 02:32:12;;;;;;;25.63;17.03;;;;;;;;;;5066312;28;20529;-82
2021/12/24 02:34:39;;;;;;;34.23;18.70;;;;;;;;;;5064551;28;20487;-82
2021/12/24 02:37:06;;;;;;;33.63;18.10;;;;;;;;;;5064602;28;20447;-83
2021/12/24 02:39:33;;;;;;;35.90;19.20;;;;;;;;;;5060550;28;20474;-82
2021/12/24 02:42:09;;;;;;;30.13;18.90;;;;;;;;;;5063616;28;20487;-83
2021/12/24 02:44:36;;;;;;;29.90;16.83;;;;;;;;;;5062818;28;20480;-82
2021/12/24 02:47:13;;;;;;;30.57;18.00;;;;;;;;;;5063827;28;20459;-82
2021/12/24 02:55:10;;;;;;;35.70;18.10;;;;;;;;;;5062816;28;20490;-83
2021/12/24 02:57:38;;;;;;;26.20;15.83;;;;;;;;;;5067027;28;20509;-82
2021/12/24 03:00:12;;;;;;;28.87;18.27;;;;;;;;;;5064380;28;21037;-83
2021/12/24 03:02:39;;;;;;;29.20;17.60;;;;;;;;;;5066200;28;20483;-82
2021/12/24 03:05:06;;;;;;;27.13;16.60;;;;;;;;;;5064270;28;20472;-82
2021/12/24 03:07:34;;;;;;;28.57;16.50;;;;;;;;;;5065965;28;20447;-82
2021/12/24 03:10:00;;;;;;;25.27;16.77;;;;;;;;;;5061809;28;20472;-82
2021/12/24 03:12:27;;;;;;;27.67;17.93;;;;;;;;;;5063062;28;20981;-83
2021/12/24 03:14:54;;;;;;;25.07;16.30;;;;;;;;;;5062983;28;20540;-82
2021/12/24 03:17:23;;;;;;;28.87;17.40;;;;;;;;;;5063777;28;20455;-82
2021/12/24 03:19:51;;;;;;;25.90;15.80;;;;;;;;;;5063307;28;20525;-82
2021/12/24 03:22:34;;;;;;;27.23;15.80;;;;;;;;;;5063477;28;20460;-82
2021/12/24 03:25:02;;;;;;;26.90;15.67;;;;;;;;;;5063862;28;20479;-82
2021/12/24 03:27:28;;;;;;;21.10;13.83;;;;;;;;;;5064460;28;20886;-82
2021/12/24 03:29:55;;;;;;;22.77;14.10;;;;;;;;;;5061906;28;20548;-82
2021/12/24 03:32:22;;;;;;;22.90;14.40;;;;;;;;;;5064542;28;20486;-83
2021/12/24 03:34:48;;;;;;;18.80;12.40;;;;;;;;;;5062009;28;20483;-83
2021/12/24 03:37:14;;;;;;;20.00;13.23;;;;;;;;;;5063825;28;20865;-82
2021/12/24 03:39:40;;;;;;;20.33;13.30;;;;;;;;;;5063182;28;20462;-83
2021/12/24 03:42:09;;;;;;;15.43;11.60;;;;;;;;;;5064720;28;20452;-83
2021/12/24 03:44:40;;;;;;;18.83;12.40;;;;;;;;;;5060617;28;20483;-81
2021/12/24 03:47:10;;;;;;;21.40;12.40;;;;;;;;;;5063289;28;20458;-82
2021/12/24 03:49:40;;;;;;;18.60;11.30;;;;;;;;;;5064370;28;20481;-82
2021/12/24 03:52:19;;;;;;;16.27;11.33;;;;;;;;;;5062166;28;20991;-82
2021/12/24 03:57:33;;;;;;;18.60;11.63;;;;;;;;;;5063085;28;20828;-82
2021/12/24 04:00:00;;;;;;;14.33;10.90;;;;;;;;;;5063185;28;20544;-82
2021/12/24 04:02:27;;;;;;;18.77;11.43;;;;;;;;;;5060186;28;20509;-83
2021/12/24 04:04:53;;;;;;;14.80;10.80;;;;;;;;;;5063774;28;20487;-82
2021/12/24 04:07:20;;;;;;;14.23;10.03;;;;;;;;;;5062317;28;20444;-82
2021/12/24 04:09:55;;;;;;;16.13;11.37;;;;;;;;;;5060938;28;20541;-82
2021/12/24 04:12:22;;;;;;;15.47;10.90;;;;;;;;;;5061700;28;20459;-82
2021/12/24 04:14:49;;;;;;;18.20;10.17;;;;;;;;;;5062191;28;21008;-82
2021/12/24 04:17:15;;;;;;;16.10;11.23;;;;;;;;;;5063561;28;20937;-82
2021/12/24 04:25:09;;;;;;;13.33;10.27;;;;;;;;;;5063535;28;21359;-82
2021/12/24 04:27:36;;;;;;;15.27;9.53;;;;;;;;;;5063233;28;20473;-82
2021/12/24 04:30:08;;;;;;;15.13;10.40;;;;;;;;;;5064088;28;20546;-83
2021/12/24 04:32:49;;;;;;;14.50;10.10;;;;;;;;;;5064545;28;21106;-82
2021/12/24 04:35:30;;;;;;;13.13;9.93;;;;;;;;;;5062596;28;20479;-82
2021/12/24 04:51:33;;;;;;;11.10;8.73;;;;;;;;;;5061986;28;20549;-82
2021/12/24 05:02:30;;;;;;;11.90;8.53;;;;;;;;;;5062130;28;20451;-82
2021/12/24 05:05:06;;;;;;;15.23;8.73;;;;;;;;;;5062202;28;20490;-83
2021/12/24 05:08:01;;;;;;;11.20;7.80;;;;;;;;;;5061670;28;20458;-82
2021/12/24 05:10:34;;;;;;;11.07;8.33;;;;;;;;;;5063801;28;20482;-83
2021/12/24 05:13:00;;;;;;;11.07;8.83;;;;;;;;;;5066310;28;20482;-82
2021/12/24 05:15:28;;;;;;;13.70;8.33;;;;;;;;;;5066581;28;20549;-83
2021/12/24 05:18:13;;;;;;;12.30;7.93;;;;;;;;;;5064630;28;21034;-82
2021/12/24 05:23:28;;;;;;;8.63;7.03;;;;;;;;;;5058085;28;20459;-82
2021/12/24 05:25:55;;;;;;;9.10;6.80;;;;;;;;;;5063280;28;21019;-82
2021/12/24 05:28:22;;;;;;;10.40;7.00;;;;;;;;;;5062066;28;20462;-82
2021/12/24 05:30:49;;;;;;;10.43;6.83;;;;;;;;;;5064730;28;20509;-82
2021/12/24 05:33:16;;;;;;;6.30;5.43;;;;;;;;;;5065570;28;20458;-83
2021/12/24 05:35:44;;;;;;;10.50;6.80;;;;;;;;;;5064570;28;20439;-81
2021/12/24 05:38:10;;;;;;;7.50;6.70;;;;;;;;;;5065880;28;20937;-82
2021/12/24 05:40:37;;;;;;;7.17;6.43;;;;;;;;;;5076487;23;20492;-81
2021/12/24 05:43:03;;;;;;;7.47;6.77;;;;;;;;;;5025315;28;20473;-80
2021/12/24 05:45:29;;;;;;;7.13;6.33;;;;;;;;;;5024963;28;20485;-81
2021/12/24 05:47:55;;;;;;;6.43;5.70;;;;;;;;;;5022980;28;20981;-80
2021/12/24 05:50:23;;;;;;;6.50;5.83;;;;;;;;;;5024642;28;20515;-80
2021/12/24 05:52:50;;;;;;;5.80;5.30;;;;;;;;;;5025552;28;20453;-80
2021/12/24 05:55:16;;;;;;;6.67;5.60;;;;;;;;;;5025971;28;20484;-80
2021/12/24 05:57:42;;;;;;;11.17;6.30;;;;;;;;;;5023714;28;21049;-79
2021/12/24 06:00:10;;;;;;;7.43;6.30;;;;;;;;;;5020917;28;21043;-81
2021/12/24 06:02:36;;;;;;;7.00;5.70;;;;;;;;;;5023508;28;20537;-81
2021/12/24 06:05:03;;;;;;;7.00;5.33;;;;;;;;;;5025310;28;20480;-80
2021/12/24 06:07:30;;;;;;;7.10;5.90;;;;;;;;;;5024038;28;20462;-81
2021/12/24 06:09:56;;;;;;;6.17;5.30;;;;;;;;;;5025060;28;20477;-80
2021/12/24 06:12:23;;;;;;;7.23;6.27;;;;;;;;;;5026497;28;20877;-80
2021/12/24 06:14:53;;;;;;;6.07;5.17;;;;;;;;;;5025906;28;20474;-80
2021/12/24 06:17:22;;;;;;;5.97;5.47;;;;;;;;;;5026462;28;20961;-81
2021/12/24 06:19:48;;;;;;;6.67;5.60;;;;;;;;;;5023272;28;20485;-81
2021/12/24 06:22:14;;;;;;;6.43;5.40;;;;;;;;;;5016015;28;20550;-79
2021/12/24 06:24:42;;;;;;;7.80;6.10;;;;;;;;;;5033474;28;21004;-81
2021/12/24 06:27:08;;;;;;;6.03;5.43;;;;;;;;;;5041813;28;21002;-81
2021/12/24 06:29:35;;;;;;;8.77;6.10;;;;;;;;;;5044446;28;20469;-81
2021/12/24 06:32:01;;;;;;;5.67;4.70;;;;;;;;;;5045362;28;20494;-80
2021/12/24 06:34:30;;;;;;;5.80;5.20;;;;;;;;;;5045591;28;20461;-80
2021/12/24 06:36:57;;;;;;;9.10;6.10;;;;;;;;;;5042690;28;20519;-80
2021/12/24 06:39:23;;;;;;;6.50;5.40;;;;;;;;;;5041784;28;20468;-81
2021/12/24 06:41:51;;;;;;;7.20;5.17;;;;;;;;;;5042626;28;20473;-80
2021/12/24 06:44:17;;;;;;;6.73;4.80;;;;;;;;;;5033343;28;20531;-80
2021/12/24 06:46:44;;;;;;;6.00;5.00;;;;;;;;;;5021922;28;20815;-80
2021/12/24 06:49:11;;;;;;;4.80;4.30;;;;;;;;;;5021884;28;20474;-80
2021/12/24 06:51:37;;;;;;;5.33;4.73;;;;;;;;;;5021944;28;20473;-80
2021/12/24 06:54:04;;;;;;;4.97;4.37;;;;;;;;;;5023581;28;20465;-80
2021/12/24 06:56:30;;;;;;;8.30;5.70;;;;;;;;;;5021153;28;20461;-81
2021/12/24 06:58:58;;;;;;;8.33;6.50;;;;;;;;;;5021209;28;20473;-80
2021/12/24 07:01:24;;;;;;;11.00;7.20;;;;;;;;;;5021389;28;20920;-80
2021/12/24 07:03:50;;;;;;;8.40;6.33;;;;;;;;;;5023820;28;20539;-80
2021/12/24 07:06:17;;;;;;;7.70;5.93;;;;;;;;;;5019027;28;21215;-80
2021/12/24 07:08:43;;;;;;;5.57;5.00;;;;;;;;;;5021975;28;20516;-80
2021/12/24 07:11:09;;;;;;;5.00;4.43;;;;;;;;;;5024933;28;20527;-80
2021/12/24 07:13:36;;;;;;;5.07;4.57;;;;;;;;;;5021931;28;20465;-80
2021/12/24 07:16:04;;;;;;;4.97;4.47;;;;;;;;;;5024077;28;20470;-80
2021/12/24 07:18:30;;;;;;;5.70;4.27;;;;;;;;;;5017594;28;20569;-80
2021/12/24 07:20:57;;;;;;;5.83;4.40;;;;;;;;;;5020276;28;20504;-80
2021/12/24 07:23:23;;;;;;;4.60;4.17;;;;;;;;;;5023245;28;20461;-80
2021/12/24 07:25:50;;;;;;;4.47;3.83;;;;;;;;;;5020048;28;20530;-79
2021/12/24 07:28:18;;;;;;;5.67;4.60;;;;;;;;;;5036660;28;20545;-79
2021/12/24 07:30:45;;;;;;;7.13;5.83;;;;;;;;;;5041923;28;20533;-79
2021/12/24 07:33:14;;;;;;;6.70;5.23;;;;;;;;;;5040868;28;20448;-78
2021/12/24 07:35:41;;;;;;;7.70;5.67;;;;;;;;;;5041453;28;21012;-79
2021/12/24 07:38:09;;;;;;;8.47;5.50;;;;;;;;;;5041513;28;20452;-79
2021/12/24 07:40:38;;;;;;;9.63;6.30;;;;;;;;;;5040781;28;20460;-79
2021/12/24 07:43:06;;;;;;;6.80;5.53;;;;;;;;;;5041662;28;20966;-79
2021/12/24 07:45:33;;;;;;;8.60;6.67;;;;;;;;;;5042433;28;20535;-79
2021/12/24 07:48:10;;;;;;;9.50;7.57;;;;;;;;;;5042112;28;20440;-77
2021/12/24 07:53:22;;;;;;;10.23;7.17;;;;;;;;;;5036234;28;20460;-79
2021/12/24 07:55:48;;;;;;;10.37;7.53;;;;;;;;;;5040563;28;20545;-79
2021/12/24 07:58:17;;;;;;;11.03;7.73;;;;;;;;;;5041691;28;20534;-79
2021/12/24 08:00:44;;;;;;;9.97;8.20;;;;;;;;;;5038353;28;20476;-79
2021/12/24 08:03:10;;;;;;;9.73;7.23;;;;;;;;;;5043036;28;20449;-79
2021/12/24 08:05:40;;;;;;;12.10;8.90;;;;;;;;;;5039215;28;20494;-79
2021/12/24 08:08:07;;;;;;;11.17;6.87;;;;;;;;;;5042565;28;20552;-80
2021/12/24 08:10:34;;;;;;;11.57;7.37;;;;;;;;;;5042546;28;20473;-80
2021/12/24 08:13:00;;;;;;;11.93;7.27;;;;;;;;;;5042232;28;20459;-79
2021/12/24 08:15:26;;;;;;;11.83;7.77;;;;;;;;;;5042004;28;20472;-79
2021/12/24 08:17:53;;;;;;;10.40;7.00;;;;;;;;;;5039049;28;20502;-79
2021/12/24 08:20:23;;;;;;;8.67;6.40;;;;;;;;;;5042020;28;20480;-79
2021/12/24 08:22:51;;;;;;;10.97;7.77;;;;;;;;;;5039905;28;20956;-79
2021/12/24 08:25:18;;;;;;;10.13;7.77;;;;;;;;;;5042055;28;20480;-79
2021/12/24 08:27:44;;;;;;;10.80;8.70;;;;;;;;;;5041878;28;20827;-79
2021/12/24 08:30:11;;;;;;;12.93;8.40;;;;;;;;;;5041283;28;20471;-79
2021/12/24 08:32:40;;;;;;;15.03;8.80;;;;;;;;;;5042488;28;20469;-79
2021/12/24 08:35:07;;;;;;;13.13;8.50;;;;;;;;;;5041748;28;20523;-79
2021/12/24 08:37:33;;;;;;;12.90;8.70;;;;;;;;;;5042536;28;20460;-79
2021/12/24 08:40:01;;;;;;;14.13;10.30;;;;;;;;;;5039691;28;20476;-80
2021/12/24 08:42:27;;;;;;;16.47;10.97;;;;;;;;;;5040456;28;20526;-79
2021/12/24 08:44:53;;;;;;;16.07;10.70;;;;;;;;;;5045528;28;20476;-79
2021/12/24 08:47:19;;;;;;;24.70;12.63;;;;;;;;;;5047600;28;21024;-79
2021/12/24 08:49:46;;;;;;;13.10;10.03;;;;;;;;;;5045257;28;20471;-80
2021/12/24 08:52:12;;;;;;;20.07;11.93;;;;;;;;;;5045222;28;20460;-79
2021/12/24 08:54:38;;;;;;;13.03;10.50;;;;;;;;;;5046101;28;20464;-79
2021/12/24 08:57:06;;;;;;;15.93;10.33;;;;;;;;;;5045933;28;20459;-79
2021/12/24 08:59:32;;;;;;;15.17;9.57;;;;;;;;;;5044071;28;20480;-79
2021/12/24 09:02:01;;;;;;;12.57;9.60;;;;;;;;;;5046200;28;20460;-79
2021/12/24 09:04:27;;;;;;;14.77;8.70;;;;;;;;;;5046604;28;21023;-79
2021/12/24 09:06:54;;;;;;;15.80;9.90;;;;;;;;;;5045575;28;20509;-79
2021/12/24 09:09:20;;;;;;;15.20;10.50;;;;;;;;;;5047100;28;20493;-79
2021/12/24 09:11:47;;;;;;;14.83;9.47;;;;;;;;;;5045206;28;20487;-79
2021/12/24 09:14:17;;;;;;;13.13;10.37;;;;;;;;;;5042888;28;20472;-80
2021/12/24 09:16:44;;;;;;;11.73;9.00;;;;;;;;;;5045569;28;20942;-79
2021/12/24 09:19:13;;;;;;;16.73;10.50;;;;;;;;;;5044570;28;20522;-79
2021/12/24 09:21:40;;;;;;;14.30;10.47;;;;;;;;;;5045688;28;20514;-80
2021/12/24 09:24:08;;;;;;;14.33;9.87;;;;;;;;;;5039761;28;20456;-79
2021/12/24 09:26:34;;;;;;;12.33;9.13;;;;;;;;;;5026390;28;20481;-79
2021/12/24 09:29:01;;;;;;;13.03;8.97;;;;;;;;;;5025143;28;20477;-79
2021/12/24 09:31:29;;;;;;;13.40;8.60;;;;;;;;;;5024144;28;20465;-80
2021/12/24 09:33:55;;;;;;;9.47;7.57;;;;;;;;;;5024349;28;20453;-79
2021/12/24 09:36:25;;;;;;;10.93;8.90;;;;;;;;;;5026463;28;20471;-79
2021/12/24 09:38:51;;;;;;;11.60;9.40;;;;;;;;;;5026173;28;20464;-79
2021/12/24 09:41:17;;;;;;;12.60;8.90;;;;;;;;;;5024728;28;20469;-80
2021/12/24 09:43:43;;;;;;;10.07;8.60;;;;;;;;;;5026193;28;20475;-79
2021/12/24 09:46:11;;;;;;;9.87;7.77;;;;;;;;;;5024576;28;20534;-79
2021/12/24 09:48:39;;;;;;;10.70;9.03;;;;;;;;;;5025272;28;20464;-80
2021/12/24 09:51:06;;;;;;;12.77;9.20;;;;;;;;;;5021724;28;20481;-80
2021/12/24 09:53:32;;;;;;;14.40;11.03;;;;;;;;;;5025850;28;20867;-79
2021/12/24 09:55:59;;;;;;;15.20;11.50;;;;;;;;;;5023628;28;20572;-79
2021/12/24 09:58:25;;;;;;;14.23;10.30;;;;;;;;;;5025212;28;20458;-80
2021/12/24 10:00:51;;;;;;;11.33;10.10;;;;;;;;;;5022906;28;20490;-79
2021/12/24 10:03:27;;;;;;;11.87;9.10;;;;;;;;;;5021851;28;20498;-80
2021/12/24 10:05:55;;;;;;;12.60;9.70;;;;;;;;;;5015064;28;20564;-79
2021/12/24 10:08:22;;;;;;;11.10;9.63;;;;;;;;;;5026723;28;20515;-79
2021/12/24 10:10:50;;;;;;;12.07;10.10;;;;;;;;;;5022374;28;20477;-79
2021/12/24 10:13:27;;;;;;;8.40;7.50;;;;;;;;;;5025586;28;20449;-79
2021/12/24 10:15:54;;;;;;;11.40;8.63;;;;;;;;;;5023684;28;20472;-79
2021/12/24 10:18:27;;;;;;;8.97;7.57;;;;;;;;;;5026990;28;20457;-79
2021/12/24 10:20:59;;;;;;;10.20;8.10;;;;;;;;;;5022646;28;20492;-79
2021/12/24 10:23:38;;;;;;;11.23;8.70;;;;;;;;;;5020586;28;20519;-79
2021/12/24 10:26:10;;;;;;;10.93;8.00;;;;;;;;;;5023109;28;20528;-79
2021/12/24 10:28:37;;;;;;;10.63;8.83;;;;;;;;;;5024207;28;20462;-79
2021/12/24 10:31:03;;;;;;;10.37;9.27;;;;;;;;;;5024068;28;20480;-79
2021/12/24 10:33:29;;;;;;;10.97;9.37;;;;;;;;;;5025089;28;20461;-79
2021/12/24 10:36:03;;;;;;;11.07;9.37;;;;;;;;;;5021900;28;21010;-79
2021/12/24 10:38:29;;;;;;;13.43;9.07;;;;;;;;;;5023016;28;20460;-79
2021/12/24 10:40:57;;;;;;;11.73;8.90;;;;;;;;;;5021333;28;20488;-80
2021/12/24 10:43:27;;;;;;;9.10;7.57;;;;;;;;;;5022154;28;20460;-79
2021/12/24 10:46:09;;;;;;;9.80;7.30;;;;;;;;;;5022845;28;21002;-80
2021/12/24 10:48:35;;;;;;;7.20;6.40;;;;;;;;;;5022584;28;20468;-79
2021/12/24 10:51:07;;;;;;;8.37;7.20;;;;;;;;;;5021916;28;20540;-79
2021/12/24 10:53:56;;;;;;;6.50;5.90;;;;;;;;;;5022789;28;20484;-79
2021/12/24 10:56:26;;;;;;;11.40;8.27;;;;;;;;;;5021228;28;20474;-79
2021/12/24 10:58:52;;;;;;;6.93;6.13;;;;;;;;;;5019350;28;20548;-79
2021/12/24 11:01:19;;;;;;;5.53;4.93;;;;;;;;;;5023849;28;20473;-79
2021/12/24 11:03:46;;;;;;;7.23;6.20;;;;;;;;;;5021342;28;20465;-79
2021/12/24 11:06:13;;;;;;;6.80;6.03;;;;;;;;;;5022797;28;20481;-79
2021/12/24 11:08:40;;;;;;;6.23;5.63;;;;;;;;;;5019508;28;20958;-79
2021/12/24 11:11:07;;;;;;;6.50;5.87;;;;;;;;;;5022965;28;20477;-80
2021/12/24 11:13:39;;;;;;;7.43;6.67;;;;;;;;;;5022127;28;20962;-79
2021/12/24 11:16:06;;;;;;;8.03;6.60;;;;;;;;;;5020312;28;20999;-79
2021/12/24 11:18:34;;;;;;;8.50;6.43;;;;;;;;;;5020338;28;21030;-80
2021/12/24 11:21:02;;;;;;;9.93;7.57;;;;;;;;;;5022225;28;21007;-79
2021/12/24 11:23:29;;;;;;;10.17;7.47;;;;;;;;;;5022310;28;20465;-79
2021/12/24 11:25:57;;;;;;;11.60;7.70;;;;;;;;;;5021813;28;20526;-79
2021/12/24 11:28:24;;;;;;;12.97;8.23;;;;;;;;;;5022200;28;20519;-79
2021/12/24 11:30:54;;;;;;;8.17;7.03;;;;;;;;;;5020211;28;21077;-78
2021/12/24 11:33:20;;;;;;;9.60;7.20;;;;;;;;;;5020470;28;20445;-79
2021/12/24 11:35:48;;;;;;;16.00;8.40;;;;;;;;;;5018982;28;20478;-79
2021/12/24 11:38:15;;;;;;;10.07;7.20;;;;;;;;;;5021356;28;20524;-79
2021/12/24 11:40:42;;;;;;;10.90;8.30;;;;;;;;;;5021937;28;20556;-76
2021/12/24 11:43:08;;;;;;;10.17;7.57;;;;;;;;;;5025856;23;20498;-84
2021/12/24 11:45:34;;;;;;;8.00;6.90;;;;;;;;;;5003611;28;20483;-84
2021/12/24 11:48:03;;;;;;;10.93;8.33;;;;;;;;;;5003834;28;20528;-82
2021/12/24 11:50:30;;;;;;;9.10;7.67;;;;;;;;;;5004339;28;21408;-83
2021/12/24 11:52:59;;;;;;;13.90;8.70;;;;;;;;;;5016432;28;20590;-83
2021/12/24 11:55:26;;;;;;;9.80;8.73;;;;;;;;;;5023253;28;20488;-83
2021/12/24 11:57:54;;;;;;;9.90;8.37;;;;;;;;;;5023833;28;20456;-84
2021/12/24 12:00:28;;;;;;;9.50;7.63;;;;;;;;;;5023218;28;20469;-84
2021/12/24 12:02:55;;;;;;;10.67;8.57;;;;;;;;;;5022605;28;20476;-84
2021/12/24 12:05:25;;;;;;;9.53;7.77;;;;;;;;;;5036210;28;20592;-83
2021/12/24 12:07:52;;;;;;;10.77;8.30;;;;;;;;;;5043022;28;20963;-83
2021/12/24 12:10:37;;;;;;;11.83;9.50;;;;;;;;;;5043064;28;20526;-83
2021/12/24 12:13:03;;;;;;;11.70;8.50;;;;;;;;;;5042200;28;20485;-83
2021/12/24 12:15:31;;;;;;;15.47;9.67;;;;;;;;;;5029599;28;20532;-83
2021/12/24 12:17:59;;;;;;;12.80;9.27;;;;;;;;;;5024920;28;20547;-83
2021/12/24 12:20:42;;;;;;;13.03;9.10;;;;;;;;;;5022655;28;20480;-83
2021/12/24 12:23:14;;;;;;;12.00;8.67;;;;;;;;;;5022208;28;20871;-83
2021/12/24 12:25:41;;;;;;;12.60;8.30;;;;;;;;;;5039937;28;20533;-83
2021/12/24 12:28:12;;;;;;;11.10;8.20;;;;;;;;;;5042744;28;20976;-83
2021/12/24 12:30:42;;;;;;;11.43;8.40;;;;;;;;;;5041721;28;20501;-83
2021/12/24 12:33:09;;;;;;;13.97;10.60;;;;;;;;;;5044524;28;20559;-84
2021/12/24 12:35:39;;;;;;;13.33;8.83;;;;;;;;;;5026652;28;20480;-83
2021/12/24 12:38:22;;;;;;;11.37;9.90;;;;;;;;;;5024425;28;20460;-82
2021/12/24 12:40:48;;;;;;;11.77;9.63;;;;;;;;;;5021294;28;20583;-83
2021/12/24 12:43:14;;;;;;;11.90;9.77;;;;;;;;;;5022262;28;20524;-83
2021/12/24 12:45:50;;;;;;;11.20;9.47;;;;;;;;;;5040114;28;20480;-83
2021/12/24 12:48:23;;;;;;;13.70;10.10;;;;;;;;;;5042588;28;20455;-84
2021/12/24 12:50:52;;;;;;;15.50;9.77;;;;;;;;;;5034022;28;20476;-82
2021/12/24 12:53:29;;;;;;;13.67;9.73;;;;;;;;;;5042621;28;20477;-84
2021/12/24 12:56:09;;;;;;;10.47;8.50;;;;;;;;;;5024013;28;20495;-85
2021/12/24 12:58:35;;;;;;;12.50;8.97;;;;;;;;;;5019444;28;20962;-84
2021/12/24 13:01:02;;;;;;;11.40;9.30;;;;;;;;;;5020032;28;21147;-84
2021/12/24 13:03:28;;;;;;;16.73;11.43;;;;;;;;;;5024428;28;20569;-84
2021/12/24 13:06:01;;;;;;;12.80;8.87;;;;;;;;;;5039860;28;20530;-84
2021/12/24 13:08:28;;;;;;;11.00;9.20;;;;;;;;;;5043898;28;20968;-84
2021/12/24 13:10:55;;;;;;;11.57;8.67;;;;;;;;;;5043621;28;20561;-84
2021/12/24 13:13:21;;;;;;;12.43;9.77;;;;;;;;;;5043782;28;20476;-84
2021/12/24 13:15:48;;;;;;;12.27;10.33;;;;;;;;;;5041708;28;20476;-84
2021/12/24 13:18:23;;;;;;;14.17;9.90;;;;;;;;;;5045269;28;21172;-84
2021/12/24 13:22:27;;;;;;;13.30;10.30;;;;;;;;;;5022793;28;20569;-84
2021/12/24 13:23:46;;;;;;;14.53;9.83;;;;;;;;;;5021526;28;20475;-83
2021/12/24 13:26:15;;;;;;;12.10;9.43;;;;;;;;;;5024224;28;20571;-84
2021/12/24 13:28:56;;;;;;;12.70;9.03;;;;;;;;;;5023337;28;20539;-84
2021/12/24 13:31:22;;;;;;;12.33;8.60;;;;;;;;;;5042806;28;20472;-84
2021/12/24 13:33:49;;;;;;;12.13;10.47;;;;;;;;;;5045789;28;20534;-84
2021/12/24 13:36:15;;;;;;;11.43;9.17;;;;;;;;;;5047402;28;20448;-83
2021/12/24 13:38:41;;;;;;;14.93;9.90;;;;;;;;;;5047498;28;20452;-84
2021/12/24 13:41:09;;;;;;;15.57;9.40;;;;;;;;;;5048695;28;20477;-84
2021/12/24 13:43:36;;;;;;;12.57;10.17;;;;;;;;;;5046189;28;20467;-84
2021/12/24 13:46:05;;;;;;;13.53;12.10;;;;;;;;;;5045246;28;20479;-84
2021/12/24 13:48:44;;;;;;;13.07;10.53;;;;;;;;;;5046881;28;20471;-84
2021/12/24 13:56:41;;;;;;;20.30;14.53;;;;;;;;;;5047956;28;20817;-84
2021/12/24 13:59:08;;;;;;;13.10;10.43;;;;;;;;;;5045208;28;20519;-83
2021/12/24 14:01:34;;;;;;;15.67;11.63;;;;;;;;;;5045231;28;20463;-83
2021/12/24 14:04:02;;;;;;;25.27;15.73;;;;;;;;;;5045462;28;20452;-86
2021/12/24 14:06:32;;;;;;;27.80;19.37;;;;;;;;;;5046538;28;20488;-84
2021/12/24 14:09:07;;;;;;;20.90;14.07;;;;;;;;;;5047492;28;20452;-83
2021/12/24 14:11:35;;;;;;;15.00;11.50;;;;;;;;;;5046963;28;20447;-83
2021/12/24 14:14:08;;;;;;;12.00;9.53;;;;;;;;;;5045595;28;20456;-84
2021/12/24 14:16:42;;;;;;;16.20;10.63;;;;;;;;;;5048017;28;20894;-85
2021/12/24 14:19:12;;;;;;;14.70;11.10;;;;;;;;;;5045415;28;20457;-84
2021/12/24 14:21:48;;;;;;;14.97;11.03;;;;;;;;;;5045363;28;20479;-85
2021/12/24 14:24:35;;;;;;;17.83;11.67;;;;;;;;;;5043097;28;21031;-85
2021/12/24 14:27:02;;;;;;;15.30;10.10;;;;;;;;;;5044918;28;20495;-84
2021/12/24 14:29:31;;;;;;;16.57;10.30;;;;;;;;;;5046476;28;20471;-85
2021/12/24 14:31:59;;;;;;;15.33;10.67;;;;;;;;;;5047731;28;20471;-85
2021/12/24 14:34:29;;;;;;;14.07;10.13;;;;;;;;;;5046032;28;20480;-85
2021/12/24 14:36:59;;;;;;;12.90;10.17;;;;;;;;;;5044487;28;20459;-84
2021/12/24 14:39:25;;;;;;;20.03;13.87;;;;;;;;;;5046919;28;20479;-85
2021/12/24 14:42:06;;;;;;;16.20;12.57;;;;;;;;;;5044043;28;20464;-85
2021/12/24 14:44:34;;;;;;;14.10;11.13;;;;;;;;;;5046962;28;20459;-85
2021/12/24 14:47:00;;;;;;;17.93;12.97;;;;;;;;;;5045372;28;20481;-85
2021/12/24 14:49:31;;;;;;;17.40;10.63;;;;;;;;;;5046421;28;20531;-85
2021/12/24 14:52:12;;;;;;;17.30;11.50;;;;;;;;;;5045639;28;20519;-84
2021/12/24 14:55:01;;;;;;;19.63;12.70;;;;;;;;;;5045123;28;20484;-85
2021/12/24 14:57:27;;;;;;;19.47;13.63;;;;;;;;;;5043894;28;20459;-84
2021/12/24 14:59:55;;;;;;;16.03;12.33;;;;;;;;;;5045496;28;21183;-85
2021/12/24 15:02:21;;;;;;;14.77;12.10;;;;;;;;;;5047119;28;20865;-84
2021/12/24 15:04:54;;;;;;;14.47;11.10;;;;;;;;;;5044779;28;20531;-84
2021/12/24 15:07:28;;;;;;;15.87;12.10;;;;;;;;;;5046478;28;21002;-85
2021/12/24 15:10:07;;;;;;;18.90;12.80;;;;;;;;;;5043916;28;20472;-84
2021/12/24 15:12:40;;;;;;;16.20;12.50;;;;;;;;;;5045513;28;20818;-84
2021/12/24 15:15:07;;;;;;;18.17;11.97;;;;;;;;;;5046753;28;20908;-84
2021/12/24 15:17:37;;;;;;;17.87;14.33;;;;;;;;;;5044796;28;20502;-84
2021/12/24 15:20:04;;;;;;;15.93;12.53;;;;;;;;;;5045572;28;21016;-84
2021/12/24 15:22:30;;;;;;;13.90;11.83;;;;;;;;;;5046210;28;20894;-84
2021/12/24 15:24:56;;;;;;;19.80;13.40;;;;;;;;;;5045477;28;21121;-84
2021/12/24 15:27:30;;;;;;;14.30;11.47;;;;;;;;;;5044744;28;20481;-84
2021/12/24 15:29:56;;;;;;;14.30;10.43;;;;;;;;;;5045557;28;20473;-84
2021/12/24 15:32:24;;;;;;;11.37;10.17;;;;;;;;;;5045911;28;20467;-84
2021/12/24 15:34:50;;;;;;;12.97;9.87;;;;;;;;;;5045494;28;20836;-84
2021/12/24 15:37:17;;;;;;;13.50;11.97;;;;;;;;;;5046693;28;20475;-84
2021/12/24 15:39:43;;;;;;;13.20;10.40;;;;;;;;;;5046069;28;20476;-83
2021/12/24 15:42:10;;;;;;;16.93;12.97;;;;;;;;;;5043758;28;20825;-84
2021/12/24 15:44:42;;;;;;;15.60;11.87;;;;;;;;;;5043523;28;20715;-84
2021/12/24 15:47:08;;;;;;;14.77;10.83;;;;;;;;;;5047389;28;20515;-84
2021/12/24 15:49:36;;;;;;;14.13;10.47;;;;;;;;;;5044279;28;20506;-84
2021/12/24 15:52:02;;;;;;;15.00;11.17;;;;;;;;;;5045575;28;20475;-83
2021/12/24 15:54:29;;;;;;;12.63;10.00;;;;;;;;;;5045830;28;20479;-83
2021/12/24 15:56:55;;;;;;;14.77;10.07;;;;;;;;;;5044801;28;20462;-84
2021/12/24 15:59:21;;;;;;;13.47;9.90;;;;;;;;;;5037825;28;20469;-83
2021/12/24 16:01:48;;;;;;;13.40;8.17;;;;;;;;;;5025924;28;20468;-84